Terminal Aerodrome Forecast
Issued by NWS

Home | Current Version | Previous Version | Text Only | Print | Product List | Glossary On
Versions: 1 2 3 4 5 6 7 8 9 10 11 12 13 14 15 16 17 18 19 20 21 22 23 24 25 26 27 28
148
FTUS41 KBUF 300531
TAFIAG
TAF
KIAG 300531Z 3006/3106 19008KT P6SM -SHRA VCTS BKN050CB
     FM300700 20007KT 5SM -SHRA VCTS BKN050CB
     FM301400 21010KT P6SM VCTS BKN090CB
     FM301600 22015G25KT P6SM SCT250
     FM310000 23010KT P6SM FEW250
     FM310300 22009KT P6SM SCT080=

USA.gov is the U.S. government's official web portal to all federal, state and local government web resources and services.